sensor_id;sensor_type;location;lat;lon;timestamp;P1;durP1;ratioP1;P2;durP2;ratioP2
20986;SDS011;10652;50.306;8.570;2023-05-07T00:03:59;1.92;;;1.40;;
20986;SDS011;10652;50.306;8.570;2023-05-07T00:08:01;1.73;;;1.50;;
20986;SDS011;10652;50.306;8.570;2023-05-07T00:12:03;2.45;;;1.40;;
20986;SDS011;10652;50.306;8.570;2023-05-07T00:16:05;2.83;;;1.33;;
20986;SDS011;10652;50.306;8.570;2023-05-07T00:20:07;1.40;;;1.30;;
20986;SDS011;10652;50.306;8.570;2023-05-07T00:24:10;2.58;;;1.50;;
20986;SDS011;10652;50.306;8.570;2023-05-07T00:28:12;1.40;;;1.25;;
20986;SDS011;10652;50.306;8.570;2023-05-07T00:32:14;1.88;;;1.13;;
20986;SDS011;10652;50.306;8.570;2023-05-07T00:36:16;1.50;;;1.10;;
20986;SDS011;10652;50.306;8.570;2023-05-07T00:40:19;2.10;;;1.48;;
20986;SDS011;10652;50.306;8.570;2023-05-07T00:44:21;2.25;;;1.10;;
20986;SDS011;10652;50.306;8.570;2023-05-07T00:48:23;2.45;;;1.40;;
20986;SDS011;10652;50.306;8.570;2023-05-07T00:52:26;1.90;;;1.35;;
20986;SDS011;10652;50.306;8.570;2023-05-07T00:56:29;1.98;;;1.40;;
20986;SDS011;10652;50.306;8.570;2023-05-07T01:00:32;3.03;;;1.52;;
20986;SDS011;10652;50.306;8.570;2023-05-07T01:04:34;2.00;;;1.27;;
20986;SDS011;10652;50.306;8.570;2023-05-07T01:08:37;1.75;;;1.50;;
20986;SDS011;10652;50.306;8.570;2023-05-07T01:12:41;2.17;;;1.45;;
20986;SDS011;10652;50.306;8.570;2023-05-07T01:16:45;1.52;;;1.20;;
20986;SDS011;10652;50.306;8.570;2023-05-07T01:20:48;1.67;;;1.58;;
20986;SDS011;10652;50.306;8.570;2023-05-07T01:24:50;2.50;;;1.45;;
20986;SDS011;10652;50.306;8.570;2023-05-07T01:28:53;3.03;;;1.67;;
20986;SDS011;10652;50.306;8.570;2023-05-07T01:32:59;2.03;;;1.55;;
20986;SDS011;10652;50.306;8.570;2023-05-07T01:37:06;2.55;;;1.40;;
20986;SDS011;10652;50.306;8.570;2023-05-07T01:41:08;2.05;;;1.50;;
20986;SDS011;10652;50.306;8.570;2023-05-07T01:45:10;1.67;;;1.55;;
20986;SDS011;10652;50.306;8.570;2023-05-07T01:49:13;1.83;;;1.38;;
20986;SDS011;10652;50.306;8.570;2023-05-07T01:53:16;1.85;;;1.15;;
20986;SDS011;10652;50.306;8.570;2023-05-07T01:57:18;1.45;;;1.13;;
20986;SDS011;10652;50.306;8.570;2023-05-07T02:01:20;2.67;;;1.40;;
20986;SDS011;10652;50.306;8.570;2023-05-07T02:05:23;3.63;;;1.30;;
20986;SDS011;10652;50.306;8.570;2023-05-07T02:09:37;1.58;;;1.25;;
20986;SDS011;10652;50.306;8.570;2023-05-07T02:13:41;4.60;;;1.75;;
20986;SDS011;10652;50.306;8.570;2023-05-07T02:18:02;2.42;;;1.70;;
20986;SDS011;10652;50.306;8.570;2023-05-07T02:22:06;1.75;;;1.42;;
20986;SDS011;10652;50.306;8.570;2023-05-07T02:26:10;1.83;;;1.60;;
20986;SDS011;10652;50.306;8.570;2023-05-07T02:30:13;2.22;;;1.52;;
20986;SDS011;10652;50.306;8.570;2023-05-07T02:34:16;1.88;;;1.75;;
20986;SDS011;10652;50.306;8.570;2023-05-07T02:38:19;2.13;;;1.67;;
20986;SDS011;10652;50.306;8.570;2023-05-07T02:42:21;2.17;;;1.50;;
20986;SDS011;10652;50.306;8.570;2023-05-07T02:46:23;2.53;;;1.50;;
20986;SDS011;10652;50.306;8.570;2023-05-07T02:50:33;2.65;;;1.60;;
20986;SDS011;10652;50.306;8.570;2023-05-07T02:54:35;1.83;;;1.48;;
20986;SDS011;10652;50.306;8.570;2023-05-07T02:58:37;1.85;;;1.60;;
20986;SDS011;10652;50.306;8.570;2023-05-07T03:02:47;1.70;;;1.60;;
20986;SDS011;10652;50.306;8.570;2023-05-07T03:06:49;1.83;;;1.58;;
20986;SDS011;10652;50.306;8.570;2023-05-07T03:10:51;3.08;;;2.10;;
20986;SDS011;10652;50.306;8.570;2023-05-07T03:14:54;1.90;;;1.80;;
20986;SDS011;10652;50.306;8.570;2023-05-07T03:18:56;2.97;;;1.67;;
20986;SDS011;10652;50.306;8.570;2023-05-07T03:22:58;2.95;;;1.80;;
20986;SDS011;10652;50.306;8.570;2023-05-07T03:27:00;3.47;;;1.80;;
20986;SDS011;10652;50.306;8.570;2023-05-07T03:31:03;2.50;;;1.60;;
20986;SDS011;10652;50.306;8.570;2023-05-07T03:35:06;2.10;;;1.50;;
20986;SDS011;10652;50.306;8.570;2023-05-07T03:39:09;1.95;;;1.50;;
20986;SDS011;10652;50.306;8.570;2023-05-07T03:43:14;4.03;;;1.55;;
20986;SDS011;10652;50.306;8.570;2023-05-07T03:47:21;3.58;;;1.45;;
20986;SDS011;10652;50.306;8.570;2023-05-07T03:51:23;1.85;;;1.48;;
20986;SDS011;10652;50.306;8.570;2023-05-07T03:55:25;2.17;;;1.48;;
20986;SDS011;10652;50.306;8.570;2023-05-07T03:59:32;1.65;;;1.55;;
20986;SDS011;10652;50.306;8.570;2023-05-07T04:03:34;2.45;;;1.45;;
20986;SDS011;10652;50.306;8.570;2023-05-07T04:07:37;3.00;;;1.50;;
20986;SDS011;10652;50.306;8.570;2023-05-07T04:11:40;2.33;;;1.65;;
20986;SDS011;10652;50.306;8.570;2023-05-07T04:15:44;3.42;;;1.60;;
20986;SDS011;10652;50.306;8.570;2023-05-07T04:19:50;3.13;;;1.98;;
20986;SDS011;10652;50.306;8.570;2023-05-07T04:23:53;1.80;;;1.52;;
20986;SDS011;10652;50.306;8.570;2023-05-07T04:27:55;2.15;;;1.85;;
20986;SDS011;10652;50.306;8.570;2023-05-07T04:32:01;2.63;;;1.75;;
20986;SDS011;10652;50.306;8.570;2023-05-07T04:36:04;2.03;;;1.83;;
20986;SDS011;10652;50.306;8.570;2023-05-07T04:40:11;1.83;;;1.48;;
20986;SDS011;10652;50.306;8.570;2023-05-07T04:44:14;1.85;;;1.65;;
20986;SDS011;10652;50.306;8.570;2023-05-07T04:48:17;1.70;;;1.60;;
20986;SDS011;10652;50.306;8.570;2023-05-07T04:52:21;3.10;;;1.70;;
20986;SDS011;10652;50.306;8.570;2023-05-07T04:56:27;2.88;;;1.90;;
20986;SDS011;10652;50.306;8.570;2023-05-07T05:00:31;2.67;;;1.45;;
20986;SDS011;10652;50.306;8.570;2023-05-07T05:04:34;4.65;;;1.92;;
20986;SDS011;10652;50.306;8.570;2023-05-07T05:08:37;4.53;;;1.95;;
20986;SDS011;10652;50.306;8.570;2023-05-07T05:12:39;2.08;;;1.70;;
20986;SDS011;10652;50.306;8.570;2023-05-07T05:16:42;2.17;;;1.70;;
20986;SDS011;10652;50.306;8.570;2023-05-07T05:20:45;1.95;;;1.42;;
20986;SDS011;10652;50.306;8.570;2023-05-07T05:24:47;2.30;;;1.50;;
20986;SDS011;10652;50.306;8.570;2023-05-07T05:28:49;3.38;;;1.50;;
20986;SDS011;10652;50.306;8.570;2023-05-07T05:32:54;3.30;;;1.50;;
20986;SDS011;10652;50.306;8.570;2023-05-07T05:36:56;2.45;;;1.42;;
20986;SDS011;10652;50.306;8.570;2023-05-07T05:41:00;3.67;;;1.42;;
20986;SDS011;10652;50.306;8.570;2023-05-07T05:45:04;2.60;;;1.38;;
20986;SDS011;10652;50.306;8.570;2023-05-07T05:49:08;2.05;;;1.60;;
20986;SDS011;10652;50.306;8.570;2023-05-07T05:53:12;2.42;;;1.73;;
20986;SDS011;10652;50.306;8.570;2023-05-07T05:57:14;2.55;;;1.35;;
20986;SDS011;10652;50.306;8.570;2023-05-07T06:01:17;2.80;;;1.98;;
20986;SDS011;10652;50.306;8.570;2023-05-07T06:05:21;2.85;;;2.20;;
20986;SDS011;10652;50.306;8.570;2023-05-07T06:09:28;3.28;;;1.80;;
20986;SDS011;10652;50.306;8.570;2023-05-07T06:13:30;2.22;;;1.88;;
20986;SDS011;10652;50.306;8.570;2023-05-07T06:17:32;3.13;;;2.00;;
20986;SDS011;10652;50.306;8.570;2023-05-07T06:21:34;2.40;;;2.00;;
20986;SDS011;10652;50.306;8.570;2023-05-07T06:25:37;2.25;;;2.05;;
20986;SDS011;10652;50.306;8.570;2023-05-07T06:29:39;2.20;;;1.77;;
20986;SDS011;10652;50.306;8.570;2023-05-07T06:33:48;2.95;;;1.98;;
20986;SDS011;10652;50.306;8.570;2023-05-07T06:37:51;3.20;;;2.00;;
20986;SDS011;10652;50.306;8.570;2023-05-07T06:41:57;3.07;;;1.80;;
20986;SDS011;10652;50.306;8.570;2023-05-07T06:46:05;2.50;;;1.70;;
20986;SDS011;10652;50.306;8.570;2023-05-07T06:50:08;3.92;;;2.10;;
20986;SDS011;10652;50.306;8.570;2023-05-07T06:54:12;2.47;;;1.98;;
20986;SDS011;10652;50.306;8.570;2023-05-07T06:58:16;3.13;;;2.10;;
20986;SDS011;10652;50.306;8.570;2023-05-07T07:02:18;3.55;;;1.85;;
20986;SDS011;10652;50.306;8.570;2023-05-07T07:06:22;3.70;;;2.10;;
20986;SDS011;10652;50.306;8.570;2023-05-07T07:10:24;2.30;;;2.10;;
20986;SDS011;10652;50.306;8.570;2023-05-07T07:14:28;3.45;;;2.00;;
20986;SDS011;10652;50.306;8.570;2023-05-07T07:18:31;2.55;;;1.95;;
20986;SDS011;10652;50.306;8.570;2023-05-07T07:22:33;3.20;;;2.10;;
20986;SDS011;10652;50.306;8.570;2023-05-07T07:26:35;4.82;;;2.42;;
20986;SDS011;10652;50.306;8.570;2023-05-07T07:30:38;4.20;;;2.40;;
20986;SDS011;10652;50.306;8.570;2023-05-07T07:34:41;2.67;;;2.47;;
20986;SDS011;10652;50.306;8.570;2023-05-07T07:38:44;3.58;;;2.90;;
20986;SDS011;10652;50.306;8.570;2023-05-07T07:42:47;3.55;;;2.80;;
20986;SDS011;10652;50.306;8.570;2023-05-07T07:46:49;3.50;;;2.80;;
20986;SDS011;10652;50.306;8.570;2023-05-07T07:50:53;4.57;;;2.90;;
20986;SDS011;10652;50.306;8.570;2023-05-07T07:54:55;5.75;;;2.88;;
20986;SDS011;10652;50.306;8.570;2023-05-07T07:58:57;4.32;;;3.30;;
20986;SDS011;10652;50.306;8.570;2023-05-07T08:03:00;3.80;;;3.40;;
20986;SDS011;10652;50.306;8.570;2023-05-07T08:07:09;3.00;;;2.70;;
20986;SDS011;10652;50.306;8.570;2023-05-07T08:11:15;4.40;;;3.47;;
20986;SDS011;10652;50.306;8.570;2023-05-07T08:15:17;4.00;;;2.95;;
20986;SDS011;10652;50.306;8.570;2023-05-07T08:19:20;2.83;;;1.90;;
20986;SDS011;10652;50.306;8.570;2023-05-07T08:23:24;2.67;;;2.10;;
20986;SDS011;10652;50.306;8.570;2023-05-07T08:27:26;2.22;;;2.03;;
20986;SDS011;10652;50.306;8.570;2023-05-07T08:31:28;2.10;;;1.90;;
20986;SDS011;10652;50.306;8.570;2023-05-07T08:35:31;2.13;;;1.92;;
20986;SDS011;10652;50.306;8.570;2023-05-07T08:39:33;2.35;;;2.00;;
20986;SDS011;10652;50.306;8.570;2023-05-07T08:43:35;2.65;;;1.90;;
20986;SDS011;10652;50.306;8.570;2023-05-07T08:47:46;2.88;;;2.20;;
20986;SDS011;10652;50.306;8.570;2023-05-07T08:51:54;3.30;;;2.25;;
20986;SDS011;10652;50.306;8.570;2023-05-07T08:55:58;3.10;;;2.28;;
20986;SDS011;10652;50.306;8.570;2023-05-07T09:00:03;3.53;;;2.30;;
20986;SDS011;10652;50.306;8.570;2023-05-07T09:04:11;3.10;;;2.25;;
20986;SDS011;10652;50.306;8.570;2023-05-07T09:08:15;2.97;;;2.40;;
20986;SDS011;10652;50.306;8.570;2023-05-07T09:12:20;2.47;;;2.28;;
20986;SDS011;10652;50.306;8.570;2023-05-07T09:16:23;2.30;;;2.10;;
20986;SDS011;10652;50.306;8.570;2023-05-07T09:20:26;3.03;;;2.67;;
20986;SDS011;10652;50.306;8.570;2023-05-07T09:24:28;2.60;;;2.00;;
20986;SDS011;10652;50.306;8.570;2023-05-07T09:28:32;2.60;;;2.40;;
20986;SDS011;10652;50.306;8.570;2023-05-07T09:32:35;2.28;;;2.08;;
20986;SDS011;10652;50.306;8.570;2023-05-07T09:36:42;2.72;;;2.03;;
20986;SDS011;10652;50.306;8.570;2023-05-07T09:40:46;3.40;;;2.63;;
20986;SDS011;10652;50.306;8.570;2023-05-07T09:44:50;2.78;;;2.40;;
20986;SDS011;10652;50.306;8.570;2023-05-07T09:48:59;8.60;;;2.65;;
20986;SDS011;10652;50.306;8.570;2023-05-07T09:53:07;2.72;;;2.22;;
20986;SDS011;10652;50.306;8.570;2023-05-07T09:57:11;3.53;;;2.20;;
20986;SDS011;10652;50.306;8.570;2023-05-07T10:01:17;3.50;;;2.30;;
20986;SDS011;10652;50.306;8.570;2023-05-07T10:05:24;2.30;;;2.10;;
20986;SDS011;10652;50.306;8.570;2023-05-07T10:09:30;2.35;;;2.15;;
20986;SDS011;10652;50.306;8.570;2023-05-07T10:13:33;2.50;;;2.30;;
20986;SDS011;10652;50.306;8.570;2023-05-07T10:17:42;2.80;;;2.30;;
20986;SDS011;10652;50.306;8.570;2023-05-07T10:21:48;2.67;;;2.47;;
20986;SDS011;10652;50.306;8.570;2023-05-07T10:25:56;4.60;;;2.80;;
20986;SDS011;10652;50.306;8.570;2023-05-07T10:30:10;2.30;;;2.10;;
20986;SDS011;10652;50.306;8.570;2023-05-07T10:34:39;3.92;;;2.20;;
20986;SDS011;10652;50.306;8.570;2023-05-07T10:38:45;3.78;;;2.20;;
20986;SDS011;10652;50.306;8.570;2023-05-07T10:42:58;3.15;;;2.60;;
20986;SDS011;10652;50.306;8.570;2023-05-07T10:51:20;3.47;;;2.25;;
20986;SDS011;10652;50.306;8.570;2023-05-07T10:55:31;3.88;;;1.90;;
20986;SDS011;10652;50.306;8.570;2023-05-07T10:59:44;2.97;;;2.15;;
20986;SDS011;10652;50.306;8.570;2023-05-07T11:04:17;3.22;;;2.40;;
20986;SDS011;10652;50.306;8.570;2023-05-07T11:13:06;2.20;;;2.00;;
20986;SDS011;10652;50.306;8.570;2023-05-07T11:17:20;2.78;;;2.00;;
20986;SDS011;10652;50.306;8.570;2023-05-07T11:21:36;1.90;;;1.75;;
20986;SDS011;10652;50.306;8.570;2023-05-07T11:26:11;2.83;;;2.30;;
20986;SDS011;10652;50.306;8.570;2023-05-07T11:30:17;4.05;;;2.10;;
20986;SDS011;10652;50.306;8.570;2023-05-07T11:34:23;3.63;;;1.80;;
20986;SDS011;10652;50.306;8.570;2023-05-07T11:38:35;2.38;;;2.10;;
20986;SDS011;10652;50.306;8.570;2023-05-07T11:42:39;2.72;;;2.08;;
20986;SDS011;10652;50.306;8.570;2023-05-07T11:46:44;2.90;;;2.17;;
20986;SDS011;10652;50.306;8.570;2023-05-07T11:51:02;1.90;;;1.80;;
20986;SDS011;10652;50.306;8.570;2023-05-07T11:55:06;2.17;;;1.90;;
20986;SDS011;10652;50.306;8.570;2023-05-07T11:59:09;2.40;;;2.20;;
20986;SDS011;10652;50.306;8.570;2023-05-07T12:03:11;2.42;;;2.22;;
20986;SDS011;10652;50.306;8.570;2023-05-07T12:07:14;3.50;;;1.88;;
20986;SDS011;10652;50.306;8.570;2023-05-07T12:11:22;2.20;;;2.00;;
20986;SDS011;10652;50.306;8.570;2023-05-07T12:15:25;2.03;;;1.88;;
20986;SDS011;10652;50.306;8.570;2023-05-07T12:19:28;2.00;;;1.80;;
20986;SDS011;10652;50.306;8.570;2023-05-07T12:23:30;2.47;;;1.40;;
20986;SDS011;10652;50.306;8.570;2023-05-07T12:27:36;2.63;;;2.15;;
20986;SDS011;10652;50.306;8.570;2023-05-07T12:31:42;2.65;;;2.42;;
20986;SDS011;10652;50.306;8.570;2023-05-07T12:35:44;2.88;;;2.33;;
20986;SDS011;10652;50.306;8.570;2023-05-07T12:39:49;2.63;;;2.03;;
20986;SDS011;10652;50.306;8.570;2023-05-07T12:44:04;2.30;;;2.10;;
20986;SDS011;10652;50.306;8.570;2023-05-07T12:48:07;2.53;;;2.13;;
20986;SDS011;10652;50.306;8.570;2023-05-07T12:52:12;2.72;;;2.53;;
20986;SDS011;10652;50.306;8.570;2023-05-07T12:56:15;3.83;;;2.80;;
20986;SDS011;10652;50.306;8.570;2023-05-07T13:00:17;3.75;;;2.78;;
20986;SDS011;10652;50.306;8.570;2023-05-07T13:04:33;2.90;;;2.28;;
20986;SDS011;10652;50.306;8.570;2023-05-07T13:08:36;3.33;;;2.70;;
20986;SDS011;10652;50.306;8.570;2023-05-07T13:12:42;3.15;;;2.80;;
20986;SDS011;10652;50.306;8.570;2023-05-07T13:16:44;3.63;;;2.30;;
20986;SDS011;10652;50.306;8.570;2023-05-07T13:20:46;2.50;;;2.30;;
20986;SDS011;10652;50.306;8.570;2023-05-07T13:24:48;2.55;;;2.22;;
20986;SDS011;10652;50.306;8.570;2023-05-07T13:28:50;2.90;;;2.13;;
20986;SDS011;10652;50.306;8.570;2023-05-07T13:32:53;2.75;;;2.03;;
20986;SDS011;10652;50.306;8.570;2023-05-07T13:36:57;2.70;;;1.90;;
20986;SDS011;10652;50.306;8.570;2023-05-07T13:40:59;1.70;;;1.60;;
20986;SDS011;10652;50.306;8.570;2023-05-07T13:45:01;1.92;;;1.77;;
20986;SDS011;10652;50.306;8.570;2023-05-07T13:49:07;2.22;;;1.75;;
20986;SDS011;10652;50.306;8.570;2023-05-07T13:53:09;2.17;;;1.90;;
20986;SDS011;10652;50.306;8.570;2023-05-07T13:57:11;2.25;;;2.05;;
20986;SDS011;10652;50.306;8.570;2023-05-07T14:01:13;2.88;;;1.67;;
20986;SDS011;10652;50.306;8.570;2023-05-07T14:05:15;1.90;;;1.70;;
20986;SDS011;10652;50.306;8.570;2023-05-07T14:09:17;5.07;;;4.30;;
20986;SDS011;10652;50.306;8.570;2023-05-07T14:13:19;4.20;;;2.88;;
20986;SDS011;10652;50.306;8.570;2023-05-07T14:17:21;6.47;;;5.97;;
20986;SDS011;10652;50.306;8.570;2023-05-07T14:21:24;2.10;;;2.00;;
20986;SDS011;10652;50.306;8.570;2023-05-07T14:25:27;2.60;;;2.25;;
20986;SDS011;10652;50.306;8.570;2023-05-07T14:29:29;2.10;;;2.00;;
20986;SDS011;10652;50.306;8.570;2023-05-07T14:33:31;2.95;;;1.92;;
20986;SDS011;10652;50.306;8.570;2023-05-07T14:37:33;2.75;;;1.98;;
20986;SDS011;10652;50.306;8.570;2023-05-07T14:41:35;2.70;;;1.70;;
20986;SDS011;10652;50.306;8.570;2023-05-07T14:45:37;1.98;;;1.80;;
20986;SDS011;10652;50.306;8.570;2023-05-07T14:49:40;2.72;;;1.80;;
20986;SDS011;10652;50.306;8.570;2023-05-07T14:53:42;3.70;;;1.70;;
20986;SDS011;10652;50.306;8.570;2023-05-07T14:57:44;1.98;;;1.77;;
20986;SDS011;10652;50.306;8.570;2023-05-07T15:01:47;3.88;;;2.03;;
20986;SDS011;10652;50.306;8.570;2023-05-07T15:05:50;2.05;;;1.85;;
20986;SDS011;10652;50.306;8.570;2023-05-07T15:09:54;1.45;;;1.35;;
20986;SDS011;10652;50.306;8.570;2023-05-07T15:13:56;3.20;;;1.70;;
20986;SDS011;10652;50.306;8.570;2023-05-07T15:17:59;1.75;;;1.60;;
20986;SDS011;10652;50.306;8.570;2023-05-07T15:22:01;2.38;;;1.70;;
20986;SDS011;10652;50.306;8.570;2023-05-07T15:26:04;2.97;;;2.00;;
20986;SDS011;10652;50.306;8.570;2023-05-07T15:30:07;2.13;;;1.60;;
20986;SDS011;10652;50.306;8.570;2023-05-07T15:34:12;3.10;;;1.48;;
20986;SDS011;10652;50.306;8.570;2023-05-07T15:38:16;2.03;;;1.92;;
20986;SDS011;10652;50.306;8.570;2023-05-07T15:42:18;2.80;;;1.70;;
20986;SDS011;10652;50.306;8.570;2023-05-07T15:46:21;1.98;;;1.50;;
20986;SDS011;10652;50.306;8.570;2023-05-07T15:50:27;2.85;;;1.40;;
20986;SDS011;10652;50.306;8.570;2023-05-07T15:54:30;2.45;;;1.45;;
20986;SDS011;10652;50.306;8.570;2023-05-07T15:58:32;2.15;;;1.40;;
20986;SDS011;10652;50.306;8.570;2023-05-07T16:02:34;1.90;;;1.50;;
20986;SDS011;10652;50.306;8.570;2023-05-07T16:06:38;2.45;;;1.50;;
20986;SDS011;10652;50.306;8.570;2023-05-07T16:10:40;1.73;;;1.63;;
20986;SDS011;10652;50.306;8.570;2023-05-07T16:14:42;2.45;;;1.63;;
20986;SDS011;10652;50.306;8.570;2023-05-07T16:18:44;2.33;;;1.50;;
20986;SDS011;10652;50.306;8.570;2023-05-07T16:22:46;2.70;;;1.70;;
20986;SDS011;10652;50.306;8.570;2023-05-07T16:26:48;3.05;;;1.50;;
20986;SDS011;10652;50.306;8.570;2023-05-07T16:30:50;2.53;;;1.52;;
20986;SDS011;10652;50.306;8.570;2023-05-07T16:34:52;2.05;;;1.42;;
20986;SDS011;10652;50.306;8.570;2023-05-07T16:38:54;1.80;;;1.70;;
20986;SDS011;10652;50.306;8.570;2023-05-07T16:42:56;1.90;;;1.67;;
20986;SDS011;10652;50.306;8.570;2023-05-07T16:46:58;1.90;;;1.70;;
20986;SDS011;10652;50.306;8.570;2023-05-07T16:51:01;2.55;;;1.67;;
20986;SDS011;10652;50.306;8.570;2023-05-07T16:55:03;1.70;;;1.60;;
20986;SDS011;10652;50.306;8.570;2023-05-07T16:59:05;2.83;;;1.80;;
20986;SDS011;10652;50.306;8.570;2023-05-07T17:03:08;1.90;;;1.80;;
20986;SDS011;10652;50.306;8.570;2023-05-07T17:07:10;1.75;;;1.65;;
20986;SDS011;10652;50.306;8.570;2023-05-07T17:11:13;3.25;;;1.80;;
20986;SDS011;10652;50.306;8.570;2023-05-07T17:15:15;1.90;;;1.70;;
20986;SDS011;10652;50.306;8.570;2023-05-07T17:19:17;3.05;;;1.95;;
20986;SDS011;10652;50.306;8.570;2023-05-07T17:23:19;2.15;;;1.92;;
20986;SDS011;10652;50.306;8.570;2023-05-07T17:27:21;2.80;;;2.50;;
20986;SDS011;10652;50.306;8.570;2023-05-07T17:31:23;3.35;;;2.80;;
20986;SDS011;10652;50.306;8.570;2023-05-07T17:35:26;4.65;;;2.60;;
20986;SDS011;10652;50.306;8.570;2023-05-07T17:39:28;3.50;;;2.85;;
20986;SDS011;10652;50.306;8.570;2023-05-07T17:43:30;3.50;;;3.17;;
20986;SDS011;10652;50.306;8.570;2023-05-07T17:47:32;3.40;;;3.10;;
20986;SDS011;10652;50.306;8.570;2023-05-07T17:51:36;3.95;;;3.20;;
20986;SDS011;10652;50.306;8.570;2023-05-07T17:55:54;3.63;;;3.30;;
20986;SDS011;10652;50.306;8.570;2023-05-07T17:59:56;3.05;;;2.83;;
20986;SDS011;10652;50.306;8.570;2023-05-07T18:03:59;3.33;;;2.55;;
20986;SDS011;10652;50.306;8.570;2023-05-07T18:08:01;3.00;;;2.20;;
20986;SDS011;10652;50.306;8.570;2023-05-07T18:12:03;3.20;;;2.35;;
20986;SDS011;10652;50.306;8.570;2023-05-07T18:16:05;2.47;;;2.00;;
20986;SDS011;10652;50.306;8.570;2023-05-07T18:20:08;3.92;;;2.70;;
20986;SDS011;10652;50.306;8.570;2023-05-07T18:24:12;3.55;;;2.42;;
20986;SDS011;10652;50.306;8.570;2023-05-07T18:28:14;3.67;;;2.42;;
20986;SDS011;10652;50.306;8.570;2023-05-07T18:32:16;3.17;;;2.00;;
20986;SDS011;10652;50.306;8.570;2023-05-07T18:36:18;3.50;;;2.03;;
20986;SDS011;10652;50.306;8.570;2023-05-07T18:40:20;2.05;;;1.50;;
20986;SDS011;10652;50.306;8.570;2023-05-07T18:44:23;4.50;;;2.00;;
20986;SDS011;10652;50.306;8.570;2023-05-07T18:48:25;1.65;;;1.50;;
20986;SDS011;10652;50.306;8.570;2023-05-07T18:52:27;2.00;;;1.80;;
20986;SDS011;10652;50.306;8.570;2023-05-07T18:56:30;2.45;;;1.80;;
20986;SDS011;10652;50.306;8.570;2023-05-07T19:00:32;1.95;;;1.50;;
20986;SDS011;10652;50.306;8.570;2023-05-07T19:04:34;1.75;;;1.60;;
20986;SDS011;10652;50.306;8.570;2023-05-07T19:08:37;1.95;;;1.70;;
20986;SDS011;10652;50.306;8.570;2023-05-07T19:12:39;3.65;;;1.50;;
20986;SDS011;10652;50.306;8.570;2023-05-07T19:16:41;2.00;;;1.80;;
20986;SDS011;10652;50.306;8.570;2023-05-07T19:20:43;2.05;;;1.55;;
20986;SDS011;10652;50.306;8.570;2023-05-07T19:24:45;1.90;;;1.60;;
20986;SDS011;10652;50.306;8.570;2023-05-07T19:28:48;1.75;;;1.60;;
20986;SDS011;10652;50.306;8.570;2023-05-07T19:33:10;2.25;;;1.90;;
20986;SDS011;10652;50.306;8.570;2023-05-07T19:37:12;5.13;;;3.10;;
20986;SDS011;10652;50.306;8.570;2023-05-07T19:41:15;4.85;;;3.65;;
20986;SDS011;10652;50.306;8.570;2023-05-07T19:45:17;5.43;;;4.20;;
20986;SDS011;10652;50.306;8.570;2023-05-07T19:49:19;4.88;;;3.95;;
20986;SDS011;10652;50.306;8.570;2023-05-07T19:53:22;5.43;;;4.20;;
20986;SDS011;10652;50.306;8.570;2023-05-07T19:57:24;5.13;;;4.28;;
20986;SDS011;10652;50.306;8.570;2023-05-07T20:01:26;5.50;;;4.75;;
20986;SDS011;10652;50.306;8.570;2023-05-07T20:05:29;5.60;;;4.30;;
20986;SDS011;10652;50.306;8.570;2023-05-07T20:09:31;3.67;;;2.50;;
20986;SDS011;10652;50.306;8.570;2023-05-07T20:13:33;3.13;;;2.22;;
20986;SDS011;10652;50.306;8.570;2023-05-07T20:17:35;3.72;;;2.30;;
20986;SDS011;10652;50.306;8.570;2023-05-07T20:21:38;2.28;;;1.92;;
20986;SDS011;10652;50.306;8.570;2023-05-07T20:25:40;2.30;;;2.10;;
20986;SDS011;10652;50.306;8.570;2023-05-07T20:29:44;3.28;;;2.03;;
20986;SDS011;10652;50.306;8.570;2023-05-07T20:33:46;2.10;;;1.90;;
20986;SDS011;10652;50.306;8.570;2023-05-07T20:37:48;2.30;;;2.10;;
20986;SDS011;10652;50.306;8.570;2023-05-07T20:41:50;2.05;;;1.80;;
20986;SDS011;10652;50.306;8.570;2023-05-07T20:45:59;1.70;;;1.60;;
20986;SDS011;10652;50.306;8.570;2023-05-07T20:50:03;2.03;;;1.48;;
20986;SDS011;10652;50.306;8.570;2023-05-07T20:54:05;2.15;;;1.92;;
20986;SDS011;10652;50.306;8.570;2023-05-07T20:58:09;2.80;;;1.90;;
20986;SDS011;10652;50.306;8.570;2023-05-07T21:02:11;2.00;;;1.80;;
20986;SDS011;10652;50.306;8.570;2023-05-07T21:06:13;3.20;;;2.25;;
20986;SDS011;10652;50.306;8.570;2023-05-07T21:10:15;4.68;;;2.75;;
20986;SDS011;10652;50.306;8.570;2023-05-07T21:14:17;4.38;;;2.72;;
20986;SDS011;10652;50.306;8.570;2023-05-07T21:18:20;4.07;;;3.20;;
20986;SDS011;10652;50.306;8.570;2023-05-07T21:22:22;3.47;;;3.05;;
20986;SDS011;10652;50.306;8.570;2023-05-07T21:26:24;3.92;;;3.63;;
20986;SDS011;10652;50.306;8.570;2023-05-07T21:30:27;5.28;;;4.45;;
20986;SDS011;10652;50.306;8.570;2023-05-07T21:34:29;5.47;;;4.95;;
20986;SDS011;10652;50.306;8.570;2023-05-07T21:38:31;5.90;;;4.60;;
20986;SDS011;10652;50.306;8.570;2023-05-07T21:42:33;5.30;;;4.80;;
20986;SDS011;10652;50.306;8.570;2023-05-07T21:46:35;6.07;;;4.90;;
20986;SDS011;10652;50.306;8.570;2023-05-07T21:50:37;5.63;;;4.90;;
20986;SDS011;10652;50.306;8.570;2023-05-07T21:54:39;5.53;;;5.03;;
20986;SDS011;10652;50.306;8.570;2023-05-07T21:58:42;6.47;;;4.82;;
20986;SDS011;10652;50.306;8.570;2023-05-07T22:02:44;5.32;;;4.82;;
20986;SDS011;10652;50.306;8.570;2023-05-07T22:06:46;6.35;;;5.45;;
20986;SDS011;10652;50.306;8.570;2023-05-07T22:10:48;5.43;;;4.93;;
20986;SDS011;10652;50.306;8.570;2023-05-07T22:14:51;5.50;;;4.85;;
20986;SDS011;10652;50.306;8.570;2023-05-07T22:18:53;5.20;;;4.70;;
20986;SDS011;10652;50.306;8.570;2023-05-07T22:22:55;5.28;;;4.78;;
20986;SDS011;10652;50.306;8.570;2023-05-07T22:26:57;5.32;;;4.80;;
20986;SDS011;10652;50.306;8.570;2023-05-07T22:30:59;5.18;;;4.65;;
20986;SDS011;10652;50.306;8.570;2023-05-07T22:35:02;6.22;;;5.38;;
20986;SDS011;10652;50.306;8.570;2023-05-07T22:39:04;6.10;;;5.50;;
20986;SDS011;10652;50.306;8.570;2023-05-07T22:43:08;6.90;;;5.63;;
20986;SDS011;10652;50.306;8.570;2023-05-07T22:47:10;5.63;;;5.03;;
20986;SDS011;10652;50.306;8.570;2023-05-07T22:51:12;10.70;;;7.53;;
20986;SDS011;10652;50.306;8.570;2023-05-07T22:55:15;6.93;;;5.60;;
20986;SDS011;10652;50.306;8.570;2023-05-07T22:59:20;5.38;;;4.88;;
20986;SDS011;10652;50.306;8.570;2023-05-07T23:03:22;6.63;;;5.38;;
20986;SDS011;10652;50.306;8.570;2023-05-07T23:07:25;5.47;;;4.97;;
20986;SDS011;10652;50.306;8.570;2023-05-07T23:11:27;5.80;;;5.10;;
20986;SDS011;10652;50.306;8.570;2023-05-07T23:15:29;6.07;;;4.97;;
20986;SDS011;10652;50.306;8.570;2023-05-07T23:19:32;5.55;;;5.05;;
20986;SDS011;10652;50.306;8.570;2023-05-07T23:23:34;5.97;;;4.97;;
20986;SDS011;10652;50.306;8.570;2023-05-07T23:27:36;5.78;;;5.15;;
20986;SDS011;10652;50.306;8.570;2023-05-07T23:31:39;6.07;;;5.38;;
20986;SDS011;10652;50.306;8.570;2023-05-07T23:35:41;5.93;;;5.32;;
20986;SDS011;10652;50.306;8.570;2023-05-07T23:39:43;6.30;;;5.70;;
20986;SDS011;10652;50.306;8.570;2023-05-07T23:43:45;6.50;;;5.85;;
20986;SDS011;10652;50.306;8.570;2023-05-07T23:47:47;6.60;;;5.85;;
20986;SDS011;10652;50.306;8.570;2023-05-07T23:51:49;8.55;;;5.63;;
20986;SDS011;10652;50.306;8.570;2023-05-07T23:55:51;7.45;;;6.18;;
20986;SDS011;10652;50.306;8.570;2023-05-07T23:59:53;6.22;;;5.65;;
